sensor_id;sensor_type;location;lat;lon;timestamp;P1;durP1;ratioP1;P2;durP2;ratioP2
71456;SDS011;59263;48.160;11.752;2024-01-06T00:01:23;21.07;;;7.40;;
71456;SDS011;59263;48.160;11.752;2024-01-06T00:03:48;17.90;;;6.40;;
71456;SDS011;59263;48.160;11.752;2024-01-06T00:06:13;17.57;;;6.43;;
71456;SDS011;59263;48.160;11.752;2024-01-06T00:08:39;22.20;;;6.85;;
71456;SDS011;59263;48.160;11.752;2024-01-06T00:11:04;16.23;;;7.20;;
71456;SDS011;59263;48.160;11.752;2024-01-06T00:13:30;17.40;;;7.03;;
71456;SDS011;59263;48.160;11.752;2024-01-06T00:15:55;18.13;;;7.43;;
71456;SDS011;59263;48.160;11.752;2024-01-06T00:18:20;19.77;;;7.70;;
71456;SDS011;59263;48.160;11.752;2024-01-06T00:20:46;17.27;;;6.77;;
71456;SDS011;59263;48.160;11.752;2024-01-06T00:23:11;16.75;;;6.93;;
71456;SDS011;59263;48.160;11.752;2024-01-06T00:25:36;20.13;;;7.38;;
71456;SDS011;59263;48.160;11.752;2024-01-06T00:28:02;17.90;;;7.63;;
71456;SDS011;59263;48.160;11.752;2024-01-06T00:30:27;17.73;;;6.57;;
71456;SDS011;59263;48.160;11.752;2024-01-06T00:32:53;17.70;;;6.47;;
71456;SDS011;59263;48.160;11.752;2024-01-06T00:35:18;16.87;;;6.23;;
71456;SDS011;59263;48.160;11.752;2024-01-06T00:37:43;17.70;;;6.43;;
71456;SDS011;59263;48.160;11.752;2024-01-06T00:40:09;17.98;;;6.93;;
71456;SDS011;59263;48.160;11.752;2024-01-06T00:42:34;17.92;;;6.72;;
71456;SDS011;59263;48.160;11.752;2024-01-06T00:45:00;17.87;;;6.63;;
71456;SDS011;59263;48.160;11.752;2024-01-06T00:47:25;15.63;;;6.80;;
71456;SDS011;59263;48.160;11.752;2024-01-06T00:49:50;16.50;;;6.30;;
71456;SDS011;59263;48.160;11.752;2024-01-06T00:52:16;15.45;;;6.18;;
71456;SDS011;59263;48.160;11.752;2024-01-06T00:54:41;17.93;;;6.33;;
71456;SDS011;59263;48.160;11.752;2024-01-06T00:57:07;19.37;;;6.47;;
71456;SDS011;59263;48.160;11.752;2024-01-06T00:59:32;16.80;;;6.47;;
71456;SDS011;59263;48.160;11.752;2024-01-06T01:01:58;15.32;;;5.85;;
71456;SDS011;59263;48.160;11.752;2024-01-06T01:04:23;16.27;;;5.63;;
71456;SDS011;59263;48.160;11.752;2024-01-06T01:06:48;15.23;;;5.90;;
71456;SDS011;59263;48.160;11.752;2024-01-06T01:09:14;14.13;;;5.73;;
71456;SDS011;59263;48.160;11.752;2024-01-06T01:11:39;13.10;;;5.00;;
71456;SDS011;59263;48.160;11.752;2024-01-06T01:14:06;14.43;;;5.97;;
71456;SDS011;59263;48.160;11.752;2024-01-06T01:16:31;14.50;;;5.47;;
71456;SDS011;59263;48.160;11.752;2024-01-06T01:18:57;14.93;;;5.45;;
71456;SDS011;59263;48.160;11.752;2024-01-06T01:21:23;17.15;;;5.95;;
71456;SDS011;59263;48.160;11.752;2024-01-06T01:23:48;14.30;;;5.77;;
71456;SDS011;59263;48.160;11.752;2024-01-06T01:26:14;17.63;;;6.77;;
71456;SDS011;59263;48.160;11.752;2024-01-06T01:28:39;20.80;;;7.00;;
71456;SDS011;59263;48.160;11.752;2024-01-06T01:31:04;22.30;;;7.63;;
71456;SDS011;59263;48.160;11.752;2024-01-06T01:33:30;19.10;;;7.30;;
71456;SDS011;59263;48.160;11.752;2024-01-06T01:35:55;17.40;;;6.00;;
71456;SDS011;59263;48.160;11.752;2024-01-06T01:38:20;16.60;;;6.00;;
71456;SDS011;59263;48.160;11.752;2024-01-06T01:40:46;14.37;;;5.57;;
71456;SDS011;59263;48.160;11.752;2024-01-06T01:43:20;16.30;;;5.33;;
71456;SDS011;59263;48.160;11.752;2024-01-06T01:45:48;15.00;;;5.32;;
71456;SDS011;59263;48.160;11.752;2024-01-06T01:48:17;13.43;;;5.40;;
71456;SDS011;59263;48.160;11.752;2024-01-06T01:50:43;15.85;;;6.05;;
71456;SDS011;59263;48.160;11.752;2024-01-06T01:53:09;14.03;;;5.23;;
71456;SDS011;59263;48.160;11.752;2024-01-06T01:55:35;12.48;;;5.00;;
71456;SDS011;59263;48.160;11.752;2024-01-06T01:58:01;12.98;;;4.35;;
71456;SDS011;59263;48.160;11.752;2024-01-06T02:00:26;13.75;;;4.45;;
71456;SDS011;59263;48.160;11.752;2024-01-06T02:02:52;10.17;;;3.53;;
71456;SDS011;59263;48.160;11.752;2024-01-06T02:05:18;13.13;;;3.67;;
71456;SDS011;59263;48.160;11.752;2024-01-06T02:07:43;10.87;;;3.93;;
71456;SDS011;59263;48.160;11.752;2024-01-06T02:10:08;13.03;;;4.37;;
71456;SDS011;59263;48.160;11.752;2024-01-06T02:12:34;13.03;;;4.37;;
71456;SDS011;59263;48.160;11.752;2024-01-06T02:14:59;11.73;;;4.00;;
71456;SDS011;59263;48.160;11.752;2024-01-06T02:17:25;11.17;;;3.33;;
71456;SDS011;59263;48.160;11.752;2024-01-06T02:19:50;14.43;;;4.72;;
71456;SDS011;59263;48.160;11.752;2024-01-06T02:22:15;13.77;;;4.27;;
71456;SDS011;59263;48.160;11.752;2024-01-06T02:24:41;11.33;;;3.47;;
71456;SDS011;59263;48.160;11.752;2024-01-06T02:27:06;13.03;;;4.10;;
71456;SDS011;59263;48.160;11.752;2024-01-06T02:29:31;9.77;;;3.43;;
71456;SDS011;59263;48.160;11.752;2024-01-06T02:31:57;13.53;;;3.63;;
71456;SDS011;59263;48.160;11.752;2024-01-06T02:34:23;10.93;;;3.75;;
71456;SDS011;59263;48.160;11.752;2024-01-06T02:36:49;10.90;;;3.70;;
71456;SDS011;59263;48.160;11.752;2024-01-06T02:39:14;9.70;;;3.47;;
71456;SDS011;59263;48.160;11.752;2024-01-06T02:41:39;10.95;;;2.83;;
71456;SDS011;59263;48.160;11.752;2024-01-06T02:44:05;10.02;;;2.92;;
71456;SDS011;59263;48.160;11.752;2024-01-06T02:46:30;10.07;;;2.60;;
71456;SDS011;59263;48.160;11.752;2024-01-06T02:48:55;11.17;;;3.80;;
71456;SDS011;59263;48.160;11.752;2024-01-06T02:51:21;14.77;;;4.70;;
71456;SDS011;59263;48.160;11.752;2024-01-06T02:53:46;10.33;;;3.63;;
71456;SDS011;59263;48.160;11.752;2024-01-06T02:56:11;9.93;;;2.90;;
71456;SDS011;59263;48.160;11.752;2024-01-06T02:58:37;12.60;;;3.17;;
71456;SDS011;59263;48.160;11.752;2024-01-06T03:01:03;8.18;;;2.58;;
71456;SDS011;59263;48.160;11.752;2024-01-06T03:03:28;9.90;;;2.50;;
71456;SDS011;59263;48.160;11.752;2024-01-06T03:05:53;9.63;;;2.70;;
71456;SDS011;59263;48.160;11.752;2024-01-06T03:08:19;8.10;;;2.17;;
71456;SDS011;59263;48.160;11.752;2024-01-06T03:10:44;9.43;;;2.33;;
71456;SDS011;59263;48.160;11.752;2024-01-06T03:13:09;9.23;;;2.38;;
71456;SDS011;59263;48.160;11.752;2024-01-06T03:15:35;8.90;;;2.13;;
71456;SDS011;59263;48.160;11.752;2024-01-06T03:18:00;7.73;;;2.10;;
71456;SDS011;59263;48.160;11.752;2024-01-06T03:20:25;9.17;;;2.50;;
71456;SDS011;59263;48.160;11.752;2024-01-06T03:22:51;8.43;;;2.10;;
71456;SDS011;59263;48.160;11.752;2024-01-06T03:25:16;7.83;;;1.70;;
71456;SDS011;59263;48.160;11.752;2024-01-06T03:27:41;8.50;;;1.50;;
71456;SDS011;59263;48.160;11.752;2024-01-06T03:30:07;6.07;;;1.80;;
71456;SDS011;59263;48.160;11.752;2024-01-06T03:32:33;7.57;;;1.80;;
71456;SDS011;59263;48.160;11.752;2024-01-06T03:34:58;7.47;;;1.87;;
71456;SDS011;59263;48.160;11.752;2024-01-06T03:37:23;7.77;;;2.43;;
71456;SDS011;59263;48.160;11.752;2024-01-06T03:39:49;8.05;;;1.98;;
71456;SDS011;59263;48.160;11.752;2024-01-06T03:42:14;7.90;;;1.80;;
71456;SDS011;59263;48.160;11.752;2024-01-06T03:44:40;7.40;;;1.93;;
71456;SDS011;59263;48.160;11.752;2024-01-06T03:47:05;6.60;;;1.63;;
71456;SDS011;59263;48.160;11.752;2024-01-06T03:49:31;7.82;;;1.85;;
71456;SDS011;59263;48.160;11.752;2024-01-06T03:51:56;7.97;;;1.70;;
71456;SDS011;59263;48.160;11.752;2024-01-06T03:54:21;7.60;;;1.60;;
71456;SDS011;59263;48.160;11.752;2024-01-06T03:56:47;5.82;;;1.40;;
71456;SDS011;59263;48.160;11.752;2024-01-06T03:59:13;7.00;;;1.48;;
71456;SDS011;59263;48.160;11.752;2024-01-06T04:01:38;6.90;;;1.47;;
71456;SDS011;59263;48.160;11.752;2024-01-06T04:04:03;7.10;;;2.00;;
71456;SDS011;59263;48.160;11.752;2024-01-06T04:06:29;7.10;;;1.75;;
71456;SDS011;59263;48.160;11.752;2024-01-06T04:08:56;5.93;;;1.50;;
71456;SDS011;59263;48.160;11.752;2024-01-06T04:11:22;8.32;;;1.80;;
71456;SDS011;59263;48.160;11.752;2024-01-06T04:13:47;5.90;;;1.47;;
71456;SDS011;59263;48.160;11.752;2024-01-06T04:16:13;6.27;;;1.90;;
71456;SDS011;59263;48.160;11.752;2024-01-06T04:18:38;5.70;;;1.37;;
71456;SDS011;59263;48.160;11.752;2024-01-06T04:21:03;6.20;;;1.60;;
71456;SDS011;59263;48.160;11.752;2024-01-06T04:23:30;7.32;;;1.60;;
71456;SDS011;59263;48.160;11.752;2024-01-06T04:25:55;8.05;;;2.08;;
71456;SDS011;59263;48.160;11.752;2024-01-06T04:28:21;6.57;;;1.83;;
71456;SDS011;59263;48.160;11.752;2024-01-06T04:30:46;8.33;;;2.37;;
71456;SDS011;59263;48.160;11.752;2024-01-06T04:33:11;10.63;;;3.00;;
71456;SDS011;59263;48.160;11.752;2024-01-06T04:35:37;9.67;;;3.00;;
71456;SDS011;59263;48.160;11.752;2024-01-06T04:38:02;10.13;;;2.70;;
71456;SDS011;59263;48.160;11.752;2024-01-06T04:40:27;11.35;;;2.88;;
71456;SDS011;59263;48.160;11.752;2024-01-06T04:42:53;7.78;;;2.30;;
71456;SDS011;59263;48.160;11.752;2024-01-06T04:45:18;8.33;;;2.57;;
71456;SDS011;59263;48.160;11.752;2024-01-06T04:47:44;9.50;;;2.42;;
71456;SDS011;59263;48.160;11.752;2024-01-06T04:50:10;8.10;;;1.67;;
71456;SDS011;59263;48.160;11.752;2024-01-06T04:52:35;8.07;;;1.60;;
71456;SDS011;59263;48.160;11.752;2024-01-06T04:55:01;5.93;;;1.40;;
71456;SDS011;59263;48.160;11.752;2024-01-06T04:57:27;3.85;;;1.02;;
71456;SDS011;59263;48.160;11.752;2024-01-06T04:59:52;5.97;;;1.50;;
71456;SDS011;59263;48.160;11.752;2024-01-06T05:02:18;4.90;;;1.30;;
71456;SDS011;59263;48.160;11.752;2024-01-06T05:04:43;6.27;;;1.40;;
71456;SDS011;59263;48.160;11.752;2024-01-06T05:07:09;5.93;;;1.27;;
71456;SDS011;59263;48.160;11.752;2024-01-06T05:09:34;5.27;;;1.17;;
71456;SDS011;59263;48.160;11.752;2024-01-06T05:11:59;5.60;;;1.00;;
71456;SDS011;59263;48.160;11.752;2024-01-06T05:14:25;4.72;;;0.90;;
71456;SDS011;59263;48.160;11.752;2024-01-06T05:16:50;3.03;;;0.53;;
71456;SDS011;59263;48.160;11.752;2024-01-06T05:19:15;1.73;;;0.47;;
71456;SDS011;59263;48.160;11.752;2024-01-06T05:21:45;3.20;;;0.70;;
71456;SDS011;59263;48.160;11.752;2024-01-06T05:24:11;0.80;;;0.30;;
71456;SDS011;59263;48.160;11.752;2024-01-06T05:26:37;1.67;;;0.40;;
71456;SDS011;59263;48.160;11.752;2024-01-06T05:29:02;2.07;;;0.50;;
71456;SDS011;59263;48.160;11.752;2024-01-06T05:31:28;1.57;;;0.40;;
71456;SDS011;59263;48.160;11.752;2024-01-06T05:33:53;1.58;;;0.30;;
71456;SDS011;59263;48.160;11.752;2024-01-06T05:36:19;0.75;;;0.30;;
71456;SDS011;59263;48.160;11.752;2024-01-06T05:38:47;1.87;;;0.40;;
71456;SDS011;59263;48.160;11.752;2024-01-06T05:41:13;0.88;;;0.20;;
71456;SDS011;59263;48.160;11.752;2024-01-06T05:43:38;2.10;;;0.47;;
71456;SDS011;59263;48.160;11.752;2024-01-06T05:46:04;0.93;;;0.30;;
71456;SDS011;59263;48.160;11.752;2024-01-06T05:48:29;0.60;;;0.20;;
71456;SDS011;59263;48.160;11.752;2024-01-06T05:50:54;2.47;;;0.50;;
71456;SDS011;59263;48.160;11.752;2024-01-06T05:53:20;2.13;;;0.27;;
71456;SDS011;59263;48.160;11.752;2024-01-06T05:55:45;1.83;;;0.33;;
71456;SDS011;59263;48.160;11.752;2024-01-06T05:58:10;1.83;;;0.38;;
71456;SDS011;59263;48.160;11.752;2024-01-06T06:00:36;2.87;;;0.40;;
71456;SDS011;59263;48.160;11.752;2024-01-06T06:03:01;1.10;;;0.30;;
71456;SDS011;59263;48.160;11.752;2024-01-06T06:05:27;4.25;;;0.50;;
71456;SDS011;59263;48.160;11.752;2024-01-06T06:07:53;2.80;;;0.55;;
71456;SDS011;59263;48.160;11.752;2024-01-06T06:10:19;2.60;;;0.70;;
71456;SDS011;59263;48.160;11.752;2024-01-06T06:12:44;2.73;;;0.27;;
71456;SDS011;59263;48.160;11.752;2024-01-06T06:15:10;1.07;;;0.40;;
71456;SDS011;59263;48.160;11.752;2024-01-06T06:17:35;2.10;;;0.50;;
71456;SDS011;59263;48.160;11.752;2024-01-06T06:20:01;0.57;;;0.20;;
71456;SDS011;59263;48.160;11.752;2024-01-06T06:22:28;1.30;;;0.40;;
71456;SDS011;59263;48.160;11.752;2024-01-06T06:24:56;1.30;;;0.30;;
71456;SDS011;59263;48.160;11.752;2024-01-06T06:27:22;9.10;;;0.60;;
71456;SDS011;59263;48.160;11.752;2024-01-06T06:29:48;1.83;;;0.40;;
71456;SDS011;59263;48.160;11.752;2024-01-06T06:32:13;1.97;;;0.40;;
71456;SDS011;59263;48.160;11.752;2024-01-06T06:34:38;7.13;;;0.70;;
71456;SDS011;59263;48.160;11.752;2024-01-06T06:37:04;4.85;;;1.30;;
71456;SDS011;59263;48.160;11.752;2024-01-06T06:39:29;4.70;;;1.00;;
71456;SDS011;59263;48.160;11.752;2024-01-06T06:41:56;4.50;;;1.10;;
71456;SDS011;59263;48.160;11.752;2024-01-06T06:44:21;2.97;;;0.88;;
71456;SDS011;59263;48.160;11.752;2024-01-06T06:46:47;3.73;;;0.80;;
71456;SDS011;59263;48.160;11.752;2024-01-06T06:49:12;4.73;;;0.87;;
71456;SDS011;59263;48.160;11.752;2024-01-06T06:51:37;4.23;;;0.83;;
71456;SDS011;59263;48.160;11.752;2024-01-06T06:54:11;7.15;;;1.30;;
71456;SDS011;59263;48.160;11.752;2024-01-06T06:56:36;3.37;;;0.90;;
71456;SDS011;59263;48.160;11.752;2024-01-06T06:59:01;5.47;;;1.10;;
71456;SDS011;59263;48.160;11.752;2024-01-06T07:01:27;4.47;;;1.13;;
71456;SDS011;59263;48.160;11.752;2024-01-06T07:03:52;7.05;;;1.30;;
71456;SDS011;59263;48.160;11.752;2024-01-06T07:06:17;4.75;;;1.20;;
71456;SDS011;59263;48.160;11.752;2024-01-06T07:08:43;7.03;;;1.63;;
71456;SDS011;59263;48.160;11.752;2024-01-06T07:11:08;7.33;;;1.40;;
71456;SDS011;59263;48.160;11.752;2024-01-06T07:13:36;5.75;;;1.17;;
71456;SDS011;59263;48.160;11.752;2024-01-06T07:16:01;4.97;;;1.17;;
71456;SDS011;59263;48.160;11.752;2024-01-06T07:18:27;4.10;;;1.30;;
71456;SDS011;59263;48.160;11.752;2024-01-06T07:20:52;5.60;;;1.13;;
71456;SDS011;59263;48.160;11.752;2024-01-06T07:23:17;7.23;;;1.43;;
71456;SDS011;59263;48.160;11.752;2024-01-06T07:25:43;5.63;;;1.20;;
71456;SDS011;59263;48.160;11.752;2024-01-06T07:28:08;5.40;;;1.25;;
71456;SDS011;59263;48.160;11.752;2024-01-06T07:30:34;4.97;;;1.30;;
71456;SDS011;59263;48.160;11.752;2024-01-06T07:32:59;11.60;;;1.70;;
71456;SDS011;59263;48.160;11.752;2024-01-06T07:35:25;6.28;;;1.60;;
71456;SDS011;59263;48.160;11.752;2024-01-06T07:37:50;5.63;;;1.80;;
71456;SDS011;59263;48.160;11.752;2024-01-06T07:40:16;7.93;;;1.67;;
71456;SDS011;59263;48.160;11.752;2024-01-06T07:42:42;7.20;;;1.85;;
71456;SDS011;59263;48.160;11.752;2024-01-06T07:45:08;6.47;;;2.08;;
71456;SDS011;59263;48.160;11.752;2024-01-06T07:47:34;6.82;;;1.85;;
71456;SDS011;59263;48.160;11.752;2024-01-06T07:49:59;7.83;;;2.50;;
71456;SDS011;59263;48.160;11.752;2024-01-06T07:52:25;8.17;;;2.17;;
71456;SDS011;59263;48.160;11.752;2024-01-06T07:54:50;7.70;;;2.20;;
71456;SDS011;59263;48.160;11.752;2024-01-06T07:57:16;7.50;;;2.40;;
71456;SDS011;59263;48.160;11.752;2024-01-06T07:59:41;7.57;;;1.75;;
71456;SDS011;59263;48.160;11.752;2024-01-06T08:02:06;8.87;;;2.30;;
71456;SDS011;59263;48.160;11.752;2024-01-06T08:04:32;9.57;;;2.53;;
71456;SDS011;59263;48.160;11.752;2024-01-06T08:06:57;8.53;;;1.97;;
71456;SDS011;59263;48.160;11.752;2024-01-06T08:09:23;7.70;;;1.70;;
71456;SDS011;59263;48.160;11.752;2024-01-06T08:11:48;6.85;;;2.20;;
71456;SDS011;59263;48.160;11.752;2024-01-06T08:14:14;7.07;;;2.00;;
71456;SDS011;59263;48.160;11.752;2024-01-06T08:16:41;8.93;;;1.90;;
71456;SDS011;59263;48.160;11.752;2024-01-06T08:19:07;7.10;;;2.17;;
71456;SDS011;59263;48.160;11.752;2024-01-06T08:21:32;7.17;;;1.77;;
71456;SDS011;59263;48.160;11.752;2024-01-06T08:23:59;8.95;;;2.17;;
71456;SDS011;59263;48.160;11.752;2024-01-06T08:26:24;9.57;;;1.87;;
71456;SDS011;59263;48.160;11.752;2024-01-06T08:28:50;7.80;;;2.42;;
71456;SDS011;59263;48.160;11.752;2024-01-06T08:31:16;6.67;;;2.07;;
71456;SDS011;59263;48.160;11.752;2024-01-06T08:33:41;8.70;;;2.10;;
71456;SDS011;59263;48.160;11.752;2024-01-06T08:36:06;7.47;;;2.37;;
71456;SDS011;59263;48.160;11.752;2024-01-06T08:38:32;7.00;;;2.13;;
71456;SDS011;59263;48.160;11.752;2024-01-06T08:40:57;10.03;;;2.20;;
71456;SDS011;59263;48.160;11.752;2024-01-06T08:43:23;8.63;;;2.20;;
71456;SDS011;59263;48.160;11.752;2024-01-06T08:45:48;8.37;;;2.10;;
71456;SDS011;59263;48.160;11.752;2024-01-06T08:48:15;9.00;;;1.92;;
71456;SDS011;59263;48.160;11.752;2024-01-06T08:50:42;8.15;;;2.30;;
71456;SDS011;59263;48.160;11.752;2024-01-06T08:53:08;5.80;;;1.50;;
71456;SDS011;59263;48.160;11.752;2024-01-06T08:55:33;6.40;;;1.93;;
71456;SDS011;59263;48.160;11.752;2024-01-06T08:57:58;9.10;;;1.63;;
71456;SDS011;59263;48.160;11.752;2024-01-06T09:00:24;9.87;;;1.53;;
71456;SDS011;59263;48.160;11.752;2024-01-06T09:02:49;9.07;;;1.50;;
71456;SDS011;59263;48.160;11.752;2024-01-06T09:05:14;6.50;;;1.70;;
71456;SDS011;59263;48.160;11.752;2024-01-06T09:07:40;7.53;;;1.83;;
71456;SDS011;59263;48.160;11.752;2024-01-06T09:10:05;8.07;;;2.10;;
71456;SDS011;59263;48.160;11.752;2024-01-06T09:12:31;5.40;;;1.50;;
71456;SDS011;59263;48.160;11.752;2024-01-06T09:14:56;10.20;;;1.90;;
71456;SDS011;59263;48.160;11.752;2024-01-06T09:17:22;7.78;;;1.50;;
71456;SDS011;59263;48.160;11.752;2024-01-06T09:19:47;5.13;;;1.13;;
71456;SDS011;59263;48.160;11.752;2024-01-06T09:22:13;4.75;;;1.20;;
71456;SDS011;59263;48.160;11.752;2024-01-06T09:24:39;11.02;;;1.38;;
71456;SDS011;59263;48.160;11.752;2024-01-06T09:27:05;7.17;;;1.37;;
71456;SDS011;59263;48.160;11.752;2024-01-06T09:29:30;6.37;;;1.50;;
71456;SDS011;59263;48.160;11.752;2024-01-06T09:31:55;6.90;;;2.30;;
71456;SDS011;59263;48.160;11.752;2024-01-06T09:34:21;10.10;;;2.40;;
71456;SDS011;59263;48.160;11.752;2024-01-06T09:36:46;10.40;;;2.90;;
71456;SDS011;59263;48.160;11.752;2024-01-06T09:39:11;12.90;;;3.63;;
71456;SDS011;59263;48.160;11.752;2024-01-06T09:41:37;9.48;;;2.58;;
71456;SDS011;59263;48.160;11.752;2024-01-06T09:44:02;5.50;;;1.30;;
71456;SDS011;59263;48.160;11.752;2024-01-06T09:46:28;7.80;;;1.57;;
71456;SDS011;59263;48.160;11.752;2024-01-06T09:48:57;9.60;;;2.38;;
71456;SDS011;59263;48.160;11.752;2024-01-06T09:51:23;8.75;;;2.17;;
71456;SDS011;59263;48.160;11.752;2024-01-06T09:53:57;10.43;;;2.77;;
71456;SDS011;59263;48.160;11.752;2024-01-06T09:56:24;7.40;;;2.20;;
71456;SDS011;59263;48.160;11.752;2024-01-06T09:58:50;6.18;;;1.40;;
71456;SDS011;59263;48.160;11.752;2024-01-06T10:01:17;9.30;;;2.10;;
71456;SDS011;59263;48.160;11.752;2024-01-06T10:03:43;6.60;;;1.90;;
71456;SDS011;59263;48.160;11.752;2024-01-06T10:06:10;6.72;;;2.10;;
71456;SDS011;59263;48.160;11.752;2024-01-06T10:08:36;6.27;;;1.87;;
71456;SDS011;59263;48.160;11.752;2024-01-06T10:11:02;9.25;;;2.67;;
71456;SDS011;59263;48.160;11.752;2024-01-06T10:13:28;7.60;;;2.33;;
71456;SDS011;59263;48.160;11.752;2024-01-06T10:15:54;6.90;;;1.83;;
71456;SDS011;59263;48.160;11.752;2024-01-06T10:18:21;6.90;;;1.60;;
71456;SDS011;59263;48.160;11.752;2024-01-06T10:20:47;6.63;;;1.50;;
71456;SDS011;59263;48.160;11.752;2024-01-06T10:23:12;5.88;;;1.20;;
71456;SDS011;59263;48.160;11.752;2024-01-06T10:25:38;5.22;;;1.20;;
71456;SDS011;59263;48.160;11.752;2024-01-06T10:28:04;6.23;;;1.60;;
71456;SDS011;59263;48.160;11.752;2024-01-06T10:30:29;6.57;;;1.40;;
71456;SDS011;59263;48.160;11.752;2024-01-06T10:32:55;7.35;;;1.40;;
71456;SDS011;59263;48.160;11.752;2024-01-06T10:35:20;9.00;;;2.33;;
71456;SDS011;59263;48.160;11.752;2024-01-06T10:37:46;10.40;;;1.20;;
71456;SDS011;59263;48.160;11.752;2024-01-06T10:40:13;6.57;;;1.42;;
71456;SDS011;59263;48.160;11.752;2024-01-06T10:42:41;8.80;;;1.30;;
71456;SDS011;59263;48.160;11.752;2024-01-06T10:45:07;7.33;;;1.60;;
71456;SDS011;59263;48.160;11.752;2024-01-06T10:47:37;6.30;;;1.50;;
71456;SDS011;59263;48.160;11.752;2024-01-06T10:50:04;5.03;;;1.52;;
71456;SDS011;59263;48.160;11.752;2024-01-06T10:52:30;5.60;;;1.20;;
71456;SDS011;59263;48.160;11.752;2024-01-06T10:54:56;8.32;;;1.70;;
71456;SDS011;59263;48.160;11.752;2024-01-06T10:57:23;5.80;;;1.60;;
71456;SDS011;59263;48.160;11.752;2024-01-06T10:59:50;6.72;;;1.80;;
71456;SDS011;59263;48.160;11.752;2024-01-06T11:02:16;5.57;;;1.60;;
71456;SDS011;59263;48.160;11.752;2024-01-06T11:04:46;7.13;;;1.80;;
71456;SDS011;59263;48.160;11.752;2024-01-06T11:07:16;7.23;;;1.50;;
71456;SDS011;59263;48.160;11.752;2024-01-06T11:09:47;7.75;;;1.88;;
71456;SDS011;59263;48.160;11.752;2024-01-06T11:12:23;11.43;;;2.00;;
71456;SDS011;59263;48.160;11.752;2024-01-06T11:14:51;7.55;;;2.00;;
71456;SDS011;59263;48.160;11.752;2024-01-06T11:17:48;7.40;;;1.87;;
71456;SDS011;59263;48.160;11.752;2024-01-06T11:20:23;8.30;;;2.03;;
71456;SDS011;59263;48.160;11.752;2024-01-06T11:22:51;10.15;;;2.08;;
71456;SDS011;59263;48.160;11.752;2024-01-06T11:25:21;9.60;;;2.17;;
71456;SDS011;59263;48.160;11.752;2024-01-06T11:27:47;8.57;;;2.07;;
71456;SDS011;59263;48.160;11.752;2024-01-06T11:30:18;12.43;;;2.42;;
71456;SDS011;59263;48.160;11.752;2024-01-06T11:32:45;7.10;;;2.15;;
71456;SDS011;59263;48.160;11.752;2024-01-06T11:35:13;8.82;;;2.13;;
71456;SDS011;59263;48.160;11.752;2024-01-06T11:42:33;11.43;;;2.75;;
71456;SDS011;59263;48.160;11.752;2024-01-06T11:45:04;12.33;;;3.73;;
71456;SDS011;59263;48.160;11.752;2024-01-06T11:47:33;12.55;;;3.53;;
71456;SDS011;59263;48.160;11.752;2024-01-06T11:50:00;17.35;;;3.88;;
71456;SDS011;59263;48.160;11.752;2024-01-06T11:52:30;11.73;;;3.20;;
71456;SDS011;59263;48.160;11.752;2024-01-06T11:54:56;15.60;;;4.10;;
71456;SDS011;59263;48.160;11.752;2024-01-06T11:57:22;12.33;;;4.30;;
71456;SDS011;59263;48.160;11.752;2024-01-06T11:59:47;15.23;;;3.67;;
71456;SDS011;59263;48.160;11.752;2024-01-06T12:02:16;12.18;;;3.60;;
71456;SDS011;59263;48.160;11.752;2024-01-06T12:04:44;14.88;;;3.55;;
71456;SDS011;59263;48.160;11.752;2024-01-06T12:07:14;13.82;;;3.35;;
71456;SDS011;59263;48.160;11.752;2024-01-06T12:09:40;9.85;;;3.00;;
71456;SDS011;59263;48.160;11.752;2024-01-06T12:12:06;9.70;;;2.90;;
71456;SDS011;59263;48.160;11.752;2024-01-06T12:55:57;7.60;;;2.85;;
71456;SDS011;59263;48.160;11.752;2024-01-06T12:58:22;5.32;;;1.83;;
71456;SDS011;59263;48.160;11.752;2024-01-06T13:00:48;10.25;;;2.42;;
71456;SDS011;59263;48.160;11.752;2024-01-06T13:03:14;7.80;;;2.40;;
71456;SDS011;59263;48.160;11.752;2024-01-06T13:05:39;9.77;;;2.40;;
71456;SDS011;59263;48.160;11.752;2024-01-06T13:08:05;8.85;;;2.53;;
71456;SDS011;59263;48.160;11.752;2024-01-06T13:10:31;6.53;;;1.63;;
71456;SDS011;59263;48.160;11.752;2024-01-06T13:12:56;9.65;;;2.40;;
71456;SDS011;59263;48.160;11.752;2024-01-06T13:15:22;7.80;;;2.50;;
71456;SDS011;59263;48.160;11.752;2024-01-06T13:17:47;11.87;;;2.37;;
71456;SDS011;59263;48.160;11.752;2024-01-06T13:20:13;10.97;;;2.27;;
71456;SDS011;59263;48.160;11.752;2024-01-06T13:22:41;8.38;;;2.22;;
71456;SDS011;59263;48.160;11.752;2024-01-06T13:25:06;8.65;;;2.50;;
71456;SDS011;59263;48.160;11.752;2024-01-06T13:27:33;7.78;;;2.15;;
71456;SDS011;59263;48.160;11.752;2024-01-06T13:29:59;7.93;;;2.17;;
71456;SDS011;59263;48.160;11.752;2024-01-06T13:32:24;7.30;;;2.40;;
71456;SDS011;59263;48.160;11.752;2024-01-06T13:34:52;7.20;;;2.35;;
71456;SDS011;59263;48.160;11.752;2024-01-06T13:37:20;11.47;;;2.70;;
71456;SDS011;59263;48.160;11.752;2024-01-06T13:39:47;8.98;;;2.60;;
71456;SDS011;59263;48.160;11.752;2024-01-06T13:42:13;9.35;;;2.60;;
71456;SDS011;59263;48.160;11.752;2024-01-06T13:44:38;10.10;;;3.03;;
71456;SDS011;59263;48.160;11.752;2024-01-06T13:47:04;9.93;;;2.73;;
71456;SDS011;59263;48.160;11.752;2024-01-06T13:49:29;10.68;;;3.10;;
71456;SDS011;59263;48.160;11.752;2024-01-06T13:51:55;9.77;;;2.47;;
71456;SDS011;59263;48.160;11.752;2024-01-06T13:54:21;9.48;;;2.78;;
71456;SDS011;59263;48.160;11.752;2024-01-06T13:56:46;8.17;;;2.37;;
71456;SDS011;59263;48.160;11.752;2024-01-06T13:59:11;8.40;;;2.33;;
71456;SDS011;59263;48.160;11.752;2024-01-06T14:01:37;8.47;;;2.67;;
71456;SDS011;59263;48.160;11.752;2024-01-06T14:04:03;10.27;;;3.10;;
71456;SDS011;59263;48.160;11.752;2024-01-06T14:06:30;9.25;;;3.22;;
71456;SDS011;59263;48.160;11.752;2024-01-06T14:08:59;10.68;;;3.45;;
71456;SDS011;59263;48.160;11.752;2024-01-06T14:11:27;8.60;;;2.53;;
71456;SDS011;59263;48.160;11.752;2024-01-06T14:13:56;11.02;;;2.75;;
71456;SDS011;59263;48.160;11.752;2024-01-06T14:16:22;10.18;;;3.08;;
71456;SDS011;59263;48.160;11.752;2024-01-06T14:18:48;12.03;;;3.03;;
71456;SDS011;59263;48.160;11.752;2024-01-06T14:21:13;14.00;;;3.33;;
71456;SDS011;59263;48.160;11.752;2024-01-06T14:23:47;9.63;;;3.15;;
71456;SDS011;59263;48.160;11.752;2024-01-06T14:26:14;12.68;;;3.42;;
71456;SDS011;59263;48.160;11.752;2024-01-06T14:28:41;8.82;;;3.05;;
71456;SDS011;59263;48.160;11.752;2024-01-06T14:31:07;9.67;;;3.40;;
71456;SDS011;59263;48.160;11.752;2024-01-06T14:33:35;10.85;;;3.67;;
71456;SDS011;59263;48.160;11.752;2024-01-06T14:36:00;10.63;;;3.20;;
71456;SDS011;59263;48.160;11.752;2024-01-06T14:38:26;9.00;;;2.95;;
71456;SDS011;59263;48.160;11.752;2024-01-06T14:40:51;6.67;;;2.10;;
71456;SDS011;59263;48.160;11.752;2024-01-06T14:43:18;9.38;;;2.88;;
71456;SDS011;59263;48.160;11.752;2024-01-06T14:45:43;8.03;;;2.67;;
71456;SDS011;59263;48.160;11.752;2024-01-06T14:48:09;10.03;;;2.70;;
71456;SDS011;59263;48.160;11.752;2024-01-06T14:50:35;9.00;;;2.72;;
71456;SDS011;59263;48.160;11.752;2024-01-06T14:53:00;12.30;;;3.47;;
71456;SDS011;59263;48.160;11.752;2024-01-06T14:55:26;9.80;;;3.63;;
71456;SDS011;59263;48.160;11.752;2024-01-06T14:57:51;9.10;;;3.03;;
71456;SDS011;59263;48.160;11.752;2024-01-06T15:00:16;10.87;;;3.50;;
71456;SDS011;59263;48.160;11.752;2024-01-06T15:02:42;9.00;;;3.10;;
71456;SDS011;59263;48.160;11.752;2024-01-06T15:05:11;10.67;;;3.10;;
71456;SDS011;59263;48.160;11.752;2024-01-06T15:07:36;10.88;;;3.10;;
71456;SDS011;59263;48.160;11.752;2024-01-06T15:10:02;11.60;;;2.57;;